Date,TemperatureHighF,TemperatureAvgF,TemperatureLowF,DewpointHighF,DewpointAvgF,DewpointLowF,HumidityHigh,HumidityAvg,HumidityLow,PressureMaxIn,PressureMinIn,WindSpeedMaxMPH,WindSpeedAvgMPH,GustSpeedMaxMPH,PrecipitationSumIn
2012-1-1,50,39,30,44,32,20,86,77,64,30.10,29.65,34,7,34,0.03
2012-1-2,30,26,22,23,20,16,84,77,63,30.14,29.94,21,5,22,0.03
2012-1-3,22,18,15,17,10,5,80,71,57,30.39,30.14,19,4,21,0.00
2012-1-4,30,23,15,21,14,10,80,68,56,30.34,30.01,17,2,17,0.00
2012-1-5,40,33,27,28,24,20,83,68,54,30.12,29.89,13,2,13,0.00
2012-1-6,54,44,36,34,30,24,69,59,45,29.90,29.80,17,3,17,0.00
2012-1-7,46,42,38,33,30,27,74,62,48,30.20,29.77,17,3,18,0.00
2012-1-8,39,33,29,27,23,20,83,68,50,30.40,30.19,13,1,13,0.00
2012-1-9,41,33,24,25,23,20,86,67,48,30.36,30.05,10,1,11,0.00
2012-1-10,45,36,28,31,26,22,85,70,55,30.14,30.03,12,1,12,0.00
2012-1-11,43,36,25,38,30,21,88,82,58,30.03,29.50,12,1,12,0.33
2012-1-12,43,40,23,40,37,19,90,87,83,29.53,29.38,23,3,23,0.12
2012-1-13,23,18,15,19,12,8,84,78,70,30.08,29.52,25,6,25,0.03
2012-1-14,22,19,18,14,13,12,80,77,70,30.31,30.07,16,2,18,0.00
2012-1-15,26,19,14,15,12,10,84,75,59,30.58,30.31,11,1,11,0.00
2012-1-16,43,32,19,37,24,12,84,72,54,30.50,29.97,19,4,19,0.00
2012-1-17,55,45,31,48,39,24,88,80,65,29.99,29.51,37,7,38,0.45
2012-1-18,31,23,16,25,15,10,84,71,56,30.31,29.99,26,3,26,0.03
2012-1-19,29,22,10,24,16,3,86,76,68,30.20,29.90,21,4,21,0.06
2012-1-20,21,13,0,14,5,-6,83,71,52,30.40,30.12,9,1,10,0.13
2012-1-21,27,22,15,20,16,10,84,77,66,30.38,30.03,12,2,12,0.11
2012-1-22,41,28,14,34,21,10,86,76,61,30.37,30.03,15,2,17,0.00
2012-1-23,57,45,35,49,38,27,89,78,67,30.03,29.59,27,7,27,0.31
2012-1-24,36,33,31,28,26,23,80,76,72,30.41,29.97,21,4,22,0.00
2012-1-25,32,31,29,27,24,22,86,75,71,30.46,30.23,8,1,9,0.00
2012-1-26,46,36,31,43,33,27,90,88,86,30.25,29.50,7,0,7,1.05
2012-1-27,46,36,32,44,32,27,91,87,79,30.09,29.43,20,3,20,0.38
2012-1-28,35,32,29,30,24,14,87,73,46,30.22,29.92,34,5,34,0.07
2012-1-29,39,31,24,27,20,14,82,63,46,30.32,29.98,29,6,31,0.00
2012-1-30,46,29,19,28,19,13,80,67,50,30.39,30.10,21,3,23,0.00
2012-1-31,59,50,43,44,33,27,72,51,40,30.16,29.99,21,4,21,0.00
2012-2-1,55,47,37,45,39,31,86,73,56,30.13,29.96,19,3,20,0.09
2012-2-2,39,36,29,33,30,24,83,76,69,30.49,30.10,9,1,10,0.00
2012-2-3,46,34,24,32,26,20,87,76,52,30.59,30.42,9,0,9,0.00
2012-2-4,35,33,30,31,29,25,91,86,82,30.44,30.19,3,0,3,0.20
2012-2-5,42,33,25,30,26,22,89,77,52,30.32,30.18,7,1,7,0.00
2012-2-6,46,35,27,32,27,23,85,72,51,30.29,30.14,14,2,15,0.00
2012-2-7,35,33,30,28,26,24,83,77,71,30.37,30.18,8,2,12,0.00
2012-2-8,32,28,23,27,23,18,84,79,72,30.36,30.27,6,1,10,0.00
2012-2-9,37,28,20,22,19,16,83,70,53,30.38,30.25,18,2,18,0.00
2012-2-10,30,28,27,24,21,16,85,74,60,30.25,29.93,13,2,13,0.00
2012-2-11,29,20,13,25,15,5,87,79,66,30.27,29.83,21,4,25,0.06
2012-2-12,24,19,15,16,12,8,83,73,65,30.27,30.22,18,4,18,0.00
2012-2-13,35,26,16,17,14,10,78,60,38,30.29,30.10,16,2,16,0.00
2012-2-14,34,32,29,30,26,16,89,80,52,30.13,29.96,13,1,13,0.04
2012-2-15,41,36,32,32,28,24,87,74,65,30.35,30.13,12,2,12,0.00
2012-2-16,46,41,37,43,37,31,90,84,77,30.19,29.97,18,2,18,0.31
2012-2-17,42,35,29,32,26,24,86,72,50,30.20,30.13,17,2,17,0.00
2012-2-18,42,34,26,30,23,19,75,65,49,30.26,30.04,20,3,20,0.00
2012-2-19,35,28,22,20,18,17,89,66,50,30.25,30.11,18,2,18,0.00
2012-2-20,41,31,25,22,18,16,70,60,41,30.46,30.23,10,1,14,0.00
2012-2-21,44,38,31,37,28,18,86,68,47,30.27,29.80,33,4,33,0.18
2012-2-22,54,43,36,37,33,28,83,68,38,29.86,29.45,20,4,20,0.02
2012-2-23,47,39,31,35,31,25,89,74,42,29.70,29.49,10,1,14,0.33
2012-2-24,46,39,31,41,32,24,88,77,56,29.82,29.36,39,6,39,0.00
2012-2-25,32,29,26,26,22,20,91,76,67,30.41,29.81,24,6,24,0.01
2012-2-26,41,33,25,23,18,16,73,56,40,30.53,30.29,13,2,14,0.00
2012-2-27,54,38,28,29,21,17,70,52,33,30.54,30.20,22,4,31,0.00
2012-2-28,44,34,20,26,22,16,85,63,44,30.57,30.23,9,1,15,0.00
2012-2-29,68,49,36,57,40,22,91,74,48,30.23,29.55,26,2,15,1.50
2012-3-1,54,40,34,39,30,28,87,68,50,29.99,29.57,24,4,0,0.00
2012-3-2,58,44,31,48,36,26,88,75,45,29.97,29.39,27,3,0,0.51
2012-3-3,48,35,29,36,25,21,78,65,59,29.86,29.47,27,7,0,0.00
2012-3-4,34,30,28,26,23,20,87,78,60,29.95,29.81,22,3,0,0.12
2012-3-5,30,25,20,24,18,13,86,75,59,30.56,29.94,12,2,0,0.00
2012-3-6,51,36,20,27,21,14,79,57,35,30.58,30.32,22,4,0,0.00
2012-3-7,66,54,45,41,32,22,54,43,34,30.40,30.16,27,5,0,0.00
2012-3-8,58,50,32,52,41,25,89,72,50,30.21,29.90,25,5,0,0.53
2012-3-9,39,33,28,27,21,14,77,61,44,30.56,30.21,22,4,0,0.00
2012-3-10,46,33,22,21,16,10,72,49,33,30.66,30.45,15,2,0,0.00
2012-3-11,65,49,32,32,24,19,61,40,23,30.49,30.32,17,2,0,0.00
2012-3-12,58,51,40,53,42,29,88,73,42,30.32,29.98,20,3,0,0.43
2012-3-13,68,60,51,54,48,39,88,68,41,30.15,29.97,22,4,0,0.09
2012-3-14,75,57,38,50,40,29,84,55,30,30.26,30.14,11,1,0,0.00
2012-3-15,71,62,51,57,50,43,81,67,49,30.20,30.06,21,3,0,0.08
2012-3-16,73,63,56,58,54,50,89,74,56,30.20,30.06,15,1,0,0.06
2012-3-17,78,62,45,58,48,39,91,65,26,30.27,30.15,14,1,0,0.00
2012-3-18,74,64,57,58,54,50,90,72,52,30.22,30.08,15,2,0,0.43
2012-3-19,77,62,49,60,53,46,91,75,38,30.19,30.10,7,0,0,0.01
2012-3-20,81,67,56,59,55,51,88,67,40,30.23,30.13,8,0,0,0.00
2012-3-21,81,68,52,58,52,47,88,61,35,30.25,30.13,12,1,0,0.00
2012-3-22,82,68,52,58,52,45,90,61,28,30.20,30.08,8,0,0,0.00
2012-3-23,82,66,51,58,51,43,89,65,26,30.12,29.88,22,1,0,0.18
2012-3-24,67,61,52,58,55,49,90,81,60,29.91,29.81,11,1,0,0.12
2012-3-25,56,52,47,50,48,44,91,86,73,30.04,29.86,11,1,11,0.00
2012-3-26,50,39,32,47,27,15,90,63,39,30.42,30.03,20,5,4,0.00
2012-3-27,54,40,27,24,20,14,76,46,23,30.47,30.05,15,2,0,0.00
2012-3-28,74,60,50,54,36,21,62,43,24,30.06,29.74,31,6,0,0.00
2012-3-29,50,42,37,37,30,27,69,63,57,30.18,29.93,13,3,0,0.00
2012-3-30,61,45,30,48,35,25,86,69,49,30.17,29.73,14,2,0,0.07
2012-3-31,45,40,37,40,34,32,87,81,70,30.02,29.80,11,2,0,0.00
2012-4-1,64,46,38,51,39,32,86,75,53,30.00,29.69,15,2,15,0.20
2012-4-2,58,46,37,37,33,24,87,65,36,30.08,29.84,10,1,12,0.00
2012-4-3,64,48,31,43,33,25,84,58,33,30.12,29.86,17,1,17,0.02
2012-4-4,58,50,39,41,31,20,72,50,27,29.98,29.88,16,3,16,0.00
2012-4-5,51,41,32,32,27,22,82,59,41,30.11,29.93,14,2,14,0.00
2012-4-6,54,42,31,31,24,7,87,54,17,30.30,30.11,14,2,14,0.00
2012-4-7,59,42,26,30,22,13,83,51,17,30.39,30.23,7,1,12,0.00
2012-4-8,59,47,37,43,29,16,76,53,21,30.23,30.05,17,2,0,0.00
2012-4-9,59,49,39,38,31,20,77,52,27,30.09,29.84,17,3,0,0.01
2012-4-10,42,39,33,29,25,22,85,57,49,30.04,29.86,12,3,0,0.00
2012-4-11,46,38,32,34,30,26,85,73,53,30.27,30.02,11,2,9,0.03
2012-4-12,56,43,29,35,28,26,88,59,33,30.33,30.19,7,1,9,0.00
2012-4-13,63,48,30,33,28,25,83,49,25,30.36,30.22,7,1,9,0.00
2012-4-14,54,48,38,52,41,31,90,75,51,30.24,30.04,12,2,12,0.23
2012-4-15,79,65,54,58,53,50,90,67,42,30.04,29.92,15,3,15,0.03
2012-4-16,78,68,53,60,50,39,64,54,36,30.18,29.83,23,6,23,0.00
2012-4-17,58,50,40,41,36,31,83,59,41,30.37,30.18,8,2,9,0.00
2012-4-18,63,51,38,41,34,31,76,54,35,30.36,30.09,9,1,9,0.00
2012-4-19,72,57,46,49,43,37,85,63,37,30.12,29.95,6,1,10,0.00
2012-4-20,76,63,49,51,47,43,78,57,38,29.95,29.72,14,3,14,0.00
2012-4-21,52,41,39,46,37,34,88,84,78,30.02,29.77,6,3,6,0.53
2012-4-22,46,41,39,36,33,30,84,72,59,30.01,29.85,8,3,16,0.00
2012-4-23,49,43,36,34,26,18,75,52,30,29.84,29.60,22,6,22,0.00
2012-4-24,57,46,35,30,22,14,60,40,19,29.76,29.55,16,4,16,0.00
2012-4-25,64,51,34,42,32,26,84,52,26,29.92,29.75,10,1,11,0.01
2012-4-26,57,50,42,54,45,37,89,82,71,30.02,29.67,9,2,11,0.08
2012-4-27,48,42,35,37,26,19,85,56,31,30.31,30.02,8,2,11,0.00
2012-4-28,44,40,32,37,29,20,84,67,40,30.33,30.19,4,0,11,0.18
2012-4-29,64,47,29,32,26,18,87,50,20,30.39,30.26,4,0,11,0.00
2012-4-30,79,60,44,59,41,20,89,51,31,30.30,29.89,12,2,0,0.34
2012-5-1,70,62,56,57,55,52,91,81,59,30.12,29.91,6,1,0,0.21
2012-5-2,84,70,59,67,61,56,90,74,48,30.03,29.95,11,2,0,0.02
2012-5-3,87,76,62,67,62,59,91,66,42,30.09,29.93,9,2,0,0.11
2012-5-4,80,70,61,64,61,58,90,75,50,30.01,29.90,8,1,0,0.00
2012-5-5,76,67,56,62,56,43,91,71,51,30.07,29.92,5,1,0,0.00
2012-5-6,78,62,45,52,42,33,83,52,23,30.10,29.99,6,0,0,0.00
2012-5-7,80,64,52,64,53,38,91,68,49,30.02,29.76,10,1,0,1.34
2012-5-8,64,62,57,60,58,54,91,87,75,29.86,29.77,6,1,0,0.28
2012-5-9,67,57,48,55,47,41,90,71,44,29.87,29.75,12,1,0,0.01
2012-5-10,60,51,42,45,38,31,88,64,34,30.06,29.84,6,1,0,0.00
2012-5-11,69,55,40,42,38,32,86,57,27,30.25,30.06,6,1,0,0.00
2012-5-12,72,59,44,48,44,40,90,60,32,30.32,30.22,7,1,0,0.00
2012-5-13,71,60,52,52,49,44,87,68,40,30.23,30.15,8,1,0,0.00
2012-5-14,72,61,50,55,50,44,91,70,49,30.15,30.01,5,0,0,0.00
2012-5-15,77,63,46,53,46,39,89,58,27,30.05,29.94,7,1,0,0.00
2012-5-16,70,58,43,53,45,30,83,62,43,30.15,29.90,13,2,0,0.00
2012-5-17,67,52,35,42,35,28,88,58,31,30.26,30.15,6,1,0,0.00
2012-5-18,78,60,38,50,40,33,86,53,22,30.21,30.11,3,0,0,0.00
2012-5-19,83,66,47,53,47,40,87,56,25,30.20,30.13,6,0,0,0.00
2012-5-20,86,70,52,59,52,45,89,57,25,30.22,30.06,5,0,0,0.00
2012-5-21,84,72,58,58,54,51,80,56,34,30.07,29.88,6,1,0,0.00
2012-5-22,64,59,53,56,52,50,88,78,71,29.97,29.93,6,2,0,0.00
2012-5-23,80,64,48,60,54,46,91,72,47,30.01,29.91,3,0,0,0.00
2012-5-24,82,70,55,64,58,52,91,68,45,30.01,29.89,11,2,0,0.00
2012-5-25,86,76,66,66,63,59,84,65,49,30.09,29.95,12,2,7,0.01
2012-5-26,85,74,64,64,58,51,90,62,35,30.20,30.08,5,0,7,0.00
2012-5-27,88,74,61,69,61,54,81,66,48,30.15,29.99,8,1,0,0.00
2012-5-28,90,78,66,71,67,62,90,71,43,30.01,29.84,9,2,0,0.00
2012-5-29,80,74,64,68,65,58,91,76,49,29.85,29.76,10,1,0,0.74
2012-5-30,78,66,54,61,52,44,91,65,31,29.87,29.79,13,1,0,0.00
2012-5-31,73,62,51,57,51,47,89,68,46,29.99,29.83,8,1,0,0.00
2012-6-1,66,60,53,62,54,46,91,81,61,29.83,29.57,17,3,0,0.47
2012-6-2,70,59,48,49,45,41,83,62,35,29.83,29.75,16,3,0,0.01
2012-6-3,75,64,54,54,48,43,77,59,36,29.84,29.73,12,2,0,0.03
2012-6-4,67,60,50,50,48,45,89,65,47,29.88,29.77,7,1,0,0.00
2012-6-5,63,57,52,52,48,45,89,73,56,30.01,29.88,7,0,0,0.15
2012-6-6,73,60,45,54,47,42,91,66,35,30.08,30.01,7,0,0,0.00
2012-6-7,77,64,51,54,48,43,87,59,32,30.10,30.03,6,1,0,0.00
2012-6-8,80,66,51,56,50,44,88,59,29,30.09,29.97,7,1,0,0.00
2012-6-9,85,72,58,56,50,45,79,49,30,30.03,29.95,8,1,0,0.00
2012-6-10,88,75,58,60,55,51,84,54,29,30.10,30.02,5,1,0,0.00
2012-6-11,77,71,62,66,62,57,90,74,58,30.06,29.92,10,1,0,0.09
2012-6-12,84,74,67,69,62,46,91,69,35,30.02,29.85,9,1,0,0.01
2012-6-13,72,63,54,52,45,37,74,54,33,30.18,30.04,0,0,0,0.00
2012-6-14,80,66,49,55,48,39,86,57,23,30.24,30.16,8,0,0,0.00
2012-6-15,86,72,58,60,55,52,83,57,35,30.23,30.16,6,1,0,0.00
2012-6-16,86,74,60,60,56,54,81,57,35,30.25,30.07,7,1,0,0.00
2012-6-17,79,70,66,69,61,56,90,75,63,30.07,29.89,7,2,0,0.91
2012-6-18,85,71,65,71,65,61,91,82,54,29.99,29.89,21,1,0,0.30
2012-6-19,88,77,64,68,64,61,90,67,44,30.10,29.99,10,1,0,0.00
2012-6-20,89,79,66,68,64,62,87,63,41,30.17,30.01,6,1,0,0.00
2012-6-21,89,80,70,67,63,59,82,59,39,30.03,29.84,10,2,0,0.00
2012-6-22,80,73,65,65,58,49,88,62,34,29.97,29.88,6,1,0,0.00
2012-6-23,80,68,56,59,53,48,89,61,39,30.09,29.97,5,0,0,0.00
2012-6-24,85,71,57,61,55,50,86,61,35,30.10,29.88,7,0,0,0.00
2012-6-25,72,67,53,60,51,42,80,59,37,30.02,29.85,13,2,0,0.00
2012-6-26,76,63,48,52,47,44,89,60,33,30.07,29.97,10,1,0,0.00
2012-6-27,83,70,52,55,50,47,83,54,30,30.06,29.91,9,1,0,0.00
2012-6-28,93,79,64,72,60,51,64,52,39,29.94,29.71,7,1,0,0.00
2012-6-29,93,81,65,72,66,55,84,62,30,29.88,29.71,8,1,0,0.03
2012-6-30,89,73,61,67,61,58,90,69,39,29.94,29.81,7,1,0,0.01
2012-7-1,91,77,63,67,62,57,90,64,35,30.00,29.86,14,1,23,0.14
2012-7-2,92,73,59,65,58,54,91,65,33,30.06,29.97,4,0,6,0.00
2012-7-3,84,74,65,69,65,58,87,72,59,30.05,29.87,8,1,8,0.24
2012-7-4,95,83,71,73,69,66,86,65,41,29.94,29.82,8,1,8,0.00
2012-7-5,88,78,70,70,66,62,87,68,48,30.00,29.89,10,0,10,0.08
2012-7-6,96,82,70,73,68,64,90,66,37,29.99,29.93,6,1,6,0.00
2012-7-7,99,84,69,77,70,65,88,64,35,29.96,29.86,10,1,10,0.00
2012-7-8,86,77,70,68,63,55,83,64,37,30.00,29.92,5,1,6,0.00
2012-7-9,85,73,58,60,54,46,85,55,29,30.06,29.99,5,0,6,0.00
2012-7-10,84,73,60,60,54,44,86,55,31,30.12,30.02,4,0,11,0.00
2012-7-11,87,73,56,56,52,47,83,52,30,30.17,30.08,6,0,11,0.00
2012-7-12,91,75,59,63,57,51,78,56,33,30.17,30.08,9,1,9,0.00
2012-7-13,86,75,67,62,56,52,72,52,35,30.20,30.13,11,2,11,0.00
2012-7-14,81,73,66,68,63,56,78,72,60,30.16,30.07,4,0,4,0.00
2012-7-15,86,75,69,70,67,62,89,76,54,30.12,29.98,6,1,0,0.57
2012-7-16,91,79,68,70,64,52,89,64,28,30.02,29.90,5,0,0,0.00
2012-7-17,96,84,70,70,65,61,79,57,35,29.92,29.80,10,1,0,0.00
2012-7-18,93,82,72,73,68,64,81,65,44,29.96,29.82,8,0,0,0.00
2012-7-19,81,73,68,71,67,64,90,83,66,29.98,29.87,6,0,0,0.64
2012-7-20,71,69,67,67,63,60,87,81,73,30.04,29.89,6,0,0,0.00
2012-7-21,84,72,59,63,60,56,90,68,44,30.12,30.03,4,0,0,0.00
2012-7-22,88,76,65,65,62,59,86,64,40,30.15,30.07,7,1,0,0.00
2012-7-23,89,80,73,69,64,62,72,60,43,30.11,29.86,9,1,0,0.00
2012-7-24,85,78,65,71,65,52,81,66,50,29.97,29.83,11,2,0,0.00
2012-7-25,87,73,54,63,54,47,88,56,27,30.01,29.74,9,1,0,0.00
2012-7-26,90,78,70,73,70,63,90,77,53,29.75,29.63,6,1,0,0.64
2012-7-27,88,75,66,70,66,58,91,75,37,29.92,29.72,10,1,0,0.45
2012-7-28,78,71,66,67,64,61,91,79,60,30.08,29.86,9,1,0,0.52
2012-7-29,83,72,61,66,58,50,91,65,36,30.12,30.05,4,0,0,0.00
2012-7-30,86,72,58,64,58,54,87,64,35,30.08,29.96,4,0,0,0.00
2012-7-31,87,75,62,67,62,58,89,67,42,29.97,29.84,7,1,0,0.00
2012-8-1,84,74,64,65,60,55,89,66,42,29.92,29.86,5,0,0,0.00
2012-8-2,88,73,56,63,57,52,90,63,30,29.96,29.89,5,0,0,0.00
2012-8-3,93,78,62,69,62,57,89,61,32,29.99,29.91,9,1,13,0.00
2012-8-4,91,80,68,70,67,63,86,66,45,30.04,29.93,12,2,12,0.00
2012-8-5,82,74,68,73,67,62,90,80,61,30.09,29.95,9,1,9,0.89
2012-8-6,81,71,60,61,57,53,89,64,40,30.17,30.05,4,0,7,0.00
2012-8-7,85,70,56,61,54,49,89,61,30,30.06,29.95,6,1,7,0.00
2012-8-8,90,72,58,71,61,55,89,71,41,30.00,29.91,8,1,8,0.16
2012-8-9,80,70,64,69,64,60,90,82,60,29.98,29.78,5,0,7,0.32
2012-8-10,76,66,60,66,60,53,90,81,58,29.79,29.68,8,1,8,0.86
2012-8-11,67,62,58,59,56,52,90,83,75,29.98,29.78,11,2,11,0.11
2012-8-12,78,67,59,60,57,53,89,71,47,30.05,29.97,8,1,8,0.00
2012-8-13,79,68,58,61,57,54,89,71,48,30.07,29.96,5,0,7,0.00
2012-8-14,73,66,62,63,60,58,88,81,70,29.97,29.87,2,0,7,0.00
2012-8-15,80,68,57,63,58,54,91,72,43,30.00,29.93,7,0,7,0.00
2012-8-16,83,71,58,63,59,55,90,68,44,30.02,29.84,9,1,0,0.03
2012-8-17,77,69,58,62,58,52,84,68,48,29.95,29.85,8,0,0,0.00
2012-8-18,76,64,53,58,51,48,90,67,38,30.03,29.94,5,0,0,0.00
2012-8-19,78,64,54,61,53,48,86,70,41,29.99,29.89,6,0,0,0.23
2012-8-20,75,64,53,61,55,50,91,75,43,30.02,29.91,7,0,0,0.02
2012-8-21,75,62,54,60,55,51,90,78,46,30.14,30.02,6,0,0,0.04
2012-8-22,81,65,51,60,52,46,91,68,30,30.21,30.12,4,0,0,0.00
2012-8-23,84,64,53,57,54,50,90,73,34,30.19,30.11,2,0,0,0.00
2012-8-24,88,72,56,63,56,51,90,62,30,30.18,30.09,7,0,0,0.00
2012-8-25,89,74,59,65,58,54,88,60,32,30.19,30.11,7,1,0,0.00
2012-8-26,87,74,58,62,59,53,85,61,42,30.21,30.06,7,1,0,0.00
2012-8-27,74,70,64,70,65,60,91,84,74,30.08,29.94,4,0,0,0.93
2012-8-28,78,70,60,67,61,53,91,74,47,30.09,29.99,6,0,0,0.00
2012-8-29,76,64,55,60,54,51,91,71,43,30.13,30.06,8,0,0,0.00
2012-8-30,83,65,48,59,51,45,91,65,29,30.18,30.07,5,0,0,0.00
2012-8-31,91,74,55,66,59,51,86,62,37,30.15,30.03,13,1,0,0.00
2012-9-1,84,75,69,72,68,65,91,78,64,30.11,30.01,6,0,0,0.19
2012-9-2,80,73,69,71,68,66,91,85,70,30.08,29.95,6,0,0,0.05
2012-9-3,87,75,67,73,68,65,91,80,54,29.97,29.89,6,0,0,0.02
2012-9-4,74,72,69,72,68,65,91,89,84,29.95,29.83,4,0,0,0.67
2012-9-5,82,73,65,67,65,62,91,78,54,29.93,29.83,7,0,0,0.00
2012-9-6,86,74,64,68,65,61,91,75,48,29.93,29.85,8,0,0,0.00
2012-9-7,83,70,63,70,64,60,91,82,57,29.94,29.70,9,1,0,0.21
2012-9-8,68,63,56,64,56,50,91,80,53,29.88,29.56,10,1,0,1.06
2012-9-9,69,59,51,53,49,43,89,72,47,30.11,29.88,5,0,0,0.00
2012-9-10,70,57,46,52,46,43,91,70,40,30.25,30.11,5,0,0,0.00
2012-9-11,75,60,45,53,48,42,90,69,37,30.34,30.25,7,0,0,0.00
2012-9-12,80,64,49,56,52,47,90,68,38,30.34,30.25,6,1,0,0.00
2012-9-13,83,68,55,64,56,52,90,68,37,30.34,30.22,7,1,0,0.00
2012-9-14,76,61,49,62,55,46,90,81,60,30.31,30.19,11,1,0,0.04
2012-9-15,70,57,47,56,47,42,91,72,43,30.34,30.23,5,0,0,0.01
2012-9-16,73,58,43,50,46,40,90,68,37,30.24,30.10,5,0,0,0.00
2012-9-17,74,61,46,55,49,43,89,66,39,30.12,29.83,10,1,0,0.00
2012-9-18,66,60,48,61,55,44,91,83,65,29.97,29.60,9,1,0,0.59
2012-9-19,62,52,40,44,38,34,87,63,37,30.22,29.97,7,0,0,0.00
2012-9-20,71,58,42,50,44,38,86,60,42,30.15,29.95,9,2,14,0.00
2012-9-21,69,62,52,53,48,38,85,63,34,30.00,29.78,9,1,14,0.31
2012-9-22,64,53,44,52,48,40,90,83,50,30.12,29.75,8,1,0,0.83
2012-9-23,60,48,40,46,40,37,90,77,44,30.26,30.12,6,0,0,0.01
2012-9-24,61,50,39,41,37,31,88,64,35,30.31,30.09,9,1,0,0.00
2012-9-25,66,54,44,53,44,37,86,69,52,30.12,29.99,12,2,0,0.01
2012-9-26,64,61,58,61,58,54,91,89,84,30.13,29.99,5,1,0,0.54
2012-9-27,61,55,53,58,52,49,91,88,81,30.22,30.13,3,0,0,0.17
2012-9-28,63,53,43,52,45,40,91,76,48,30.20,30.12,4,0,0,0.00
2012-9-29,67,52,40,48,43,37,91,74,43,30.15,29.97,5,0,0,0.00
2012-9-30,64,53,45,49,45,41,89,75,45,29.99,29.90,4,0,0,0.00
2012-10-1,64,52,38,51,44,36,90,74,50,30.00,29.86,4,0,0,0.02
2012-10-2,73,62,54,65,58,49,90,86,74,29.91,29.81,6,0,0,0.37
2012-10-3,70,64,56,63,57,52,91,80,58,30.17,29.88,10,1,0,0.01
2012-10-4,72,62,54,55,53,51,89,74,51,30.21,30.13,12,1,0,0.00
2012-10-5,68,60,48,58,53,44,87,77,68,30.13,29.97,6,1,0,0.19
2012-10-6,55,46,41,44,38,33,89,74,49,30.17,29.94,13,2,0,0.44
2012-10-7,47,42,38,38,36,34,85,78,62,30.23,30.13,7,0,0,0.02
2012-10-8,50,41,34,36,33,30,88,75,49,30.32,30.22,7,1,0,0.00
2012-10-9,57,45,33,40,35,30,89,71,43,30.27,30.04,10,1,0,0.00
2012-10-10,52,46,39,42,36,28,87,70,50,30.24,29.93,13,3,0,0.02
2012-10-11,57,44,32,33,30,27,80,59,35,30.35,30.17,12,1,0,0.00
2012-10-12,52,46,34,39,32,26,84,59,36,30.47,30.20,7,1,0,0.00
2012-10-13,64,49,30,51,36,26,84,63,46,30.48,30.06,9,2,0,0.01
2012-10-14,74,65,61,58,55,51,84,70,54,30.07,29.64,20,5,0,0.08
2012-10-15,65,52,47,57,46,41,87,77,68,29.95,29.63,15,2,0,0.04
2012-10-16,57,49,45,41,39,36,81,68,50,30.04,29.89,6,1,0,0.00
2012-10-17,72,58,46,49,43,38,75,58,39,29.92,29.70,10,2,0,0.00
2012-10-18,62,56,49,48,45,42,82,67,54,29.81,29.58,22,4,0,0.06
2012-10-19,61,51,45,44,40,32,86,69,34,29.79,29.62,16,3,0,0.12
2012-10-20,52,48,45,42,41,39,86,77,63,29.99,29.70,12,2,0,0.01
2012-10-21,60,50,41,43,39,36,85,69,45,30.18,29.99,9,1,0,0.00
2012-10-22,73,56,39,53,45,35,88,68,44,30.21,30.08,9,1,0,0.00
2012-10-23,70,64,57,58,54,50,85,69,54,30.08,30.01,10,1,0,0.02
2012-10-24,77,66,59,57,53,50,85,64,44,30.13,30.03,7,1,0,0.03
2012-10-25,79,67,54,51,48,44,81,54,29,30.11,29.98,9,2,0,0.00
2012-10-26,65,56,48,52,46,44,87,72,52,30.17,29.98,8,2,0,0.05
2012-10-27,48,46,43,44,42,40,88,86,79,30.14,30.06,9,3,0,0.93
2012-10-28,46,42,40,40,38,36,91,84,78,30.13,29.98,10,4,0,0.93
2012-10-29,42,41,39,38,37,36,87,86,85,29.98,29.43,26,6,0,1.00
2012-10-30,46,43,40,43,40,36,91,88,85,29.44,29.23,30,7,0,1.01
2012-10-31,42,39,36,38,35,33,88,87,83,29.71,29.44,20,4,0,0.04
2012-11-1,40,39,37,37,35,32,89,86,81,29.82,29.70,15,3,0,0.02
2012-11-2,39,36,34,33,31,28,87,79,74,30.10,29.81,12,2,0,0.02
2012-11-3,42,38,36,34,31,29,82,76,68,30.22,30.09,9,1,0,0.00
2012-11-4,39,37,34,32,29,27,85,75,64,30.22,30.18,8,1,0,0.00
2012-11-5,39,36,33,32,28,24,84,71,62,30.26,30.18,9,1,0,0.00
2012-11-6,45,35,29,29,25,22,81,66,45,30.23,30.01,9,0,0,0.00
2012-11-7,45,34,26,29,25,22,84,69,46,30.17,29.99,8,0,0,0.00
2012-11-8,46,36,28,32,28,22,86,73,54,30.27,30.16,10,1,0,0.00
2012-11-9,52,40,27,38,32,24,88,74,56,30.33,30.20,9,1,0,0.01
2012-11-10,62,53,43,44,41,35,89,67,50,30.28,30.17,15,2,0,0.24
2012-11-11,68,60,52,40,36,30,53,41,30,30.33,30.13,22,4,0,0.00
2012-11-12,63,52,33,52,40,24,87,67,34,30.39,29.99,27,6,0,0.42
2012-11-13,36,34,30,27,23,20,77,66,52,30.62,30.38,15,1,0,0.00
2012-11-14,38,34,28,27,25,22,81,70,58,30.66,30.47,9,0,0,0.00
2012-11-15,47,34,24,30,25,20,86,71,45,30.48,30.38,5,0,0,0.00
2012-11-16,50,37,27,36,29,24,88,74,45,30.58,30.41,10,0,0,0.00
2012-11-17,54,37,24,35,27,21,88,70,37,30.69,30.58,8,0,0,0.01
2012-11-18,55,38,25,32,27,22,86,66,33,30.61,30.49,7,0,0,0.00
2012-11-19,55,38,26,34,29,22,87,70,41,30.50,30.27,6,0,0,0.00
2012-11-20,56,42,32,37,32,28,86,69,41,30.27,30.14,6,0,0,0.00
2012-11-21,59,43,31,38,32,27,87,67,35,30.31,30.19,6,0,0,0.00
2012-11-22,60,46,32,40,34,27,86,66,45,30.28,30.02,14,2,0,0.00
2012-11-23,52,42,30,45,32,21,86,68,48,30.07,29.85,25,6,0,0.09
2012-11-24,31,30,29,23,21,17,76,69,58,30.19,30.05,19,5,14,0.00
2012-11-25,40,31,26,24,21,18,81,66,51,30.14,29.93,20,2,20,0.00
2012-11-26,40,33,26,29,25,21,91,71,56,30.32,30.07,8,0,11,0.00
2012-11-27,34,31,23,29,24,18,85,75,58,30.40,30.30,6,1,11,0.01
2012-11-28,39,30,23,24,21,18,83,71,52,30.43,30.33,16,2,16,0.00
2012-11-29,45,34,27,27,22,20,78,62,42,30.46,30.32,15,2,15,0.00
2012-11-30,51,41,31,31,28,22,77,60,44,30.34,30.21,11,1,11,0.00
2012-12-1,56,46,33,42,36,28,84,70,56,30.35,30.21,14,2,14,0.00
2012-12-2,54,52,50,51,47,40,91,82,66,30.23,30.05,16,3,16,0.22
2012-12-3,60,56,53,56,53,51,91,89,85,30.22,30.12,12,2,12,0.01
2012-12-4,60,53,40,54,48,37,88,81,72,30.17,29.97,17,3,17,0.60
2012-12-5,40,35,28,37,27,20,88,74,56,30.45,30.16,14,2,14,0.01
2012-12-6,44,35,26,30,25,21,84,67,49,30.42,30.08,12,1,12,0.00
2012-12-7,47,43,39,43,40,29,90,87,67,30.08,29.92,7,0,11,0.75
2012-12-8,51,46,39,47,42,33,91,87,80,30.16,29.84,14,2,14,0.08
2012-12-9,55,42,36,52,37,30,91,82,76,30.20,29.74,15,2,15,0.38
2012-12-10,56,44,33,53,40,30,91,87,82,29.89,29.65,14,2,14,0.43
2012-12-11,38,33,28,30,26,21,87,78,62,30.29,29.88,12,1,12,0.02
2012-12-12,39,30,24,26,22,19,86,74,55,30.51,30.30,8,1,8,0.00
2012-12-13,43,31,20,28,21,16,87,68,42,30.52,30.33,10,1,0,0.01
2012-12-14,47,37,30,30,26,20,83,65,49,30.35,30.26,8,1,0,0.00
2012-12-15,48,39,30,35,28,25,83,67,46,30.27,29.88,12,1,12,0.02
2012-12-16,58,52,48,49,44,35,86,74,61,29.89,29.69,16,3,16,0.01
2012-12-17,49,45,41,45,40,37,88,83,77,29.79,29.57,7,0,8,0.04
2012-12-18,41,38,36,37,32,27,89,79,61,29.86,29.57,14,2,14,0.29
2012-12-19,42,38,34,36,34,30,89,83,72,30.20,29.80,10,1,10,0.03
2012-12-20,48,41,34,42,34,28,87,79,61,30.18,29.34,27,5,15,0.57
2012-12-21,36,31,28,29,26,24,86,82,67,29.84,29.35,28,6,0,0.13
2012-12-22,31,29,23,26,21,17,85,72,66,30.17,29.83,27,4,0,0.00
2012-12-23,36,26,20,23,19,15,84,75,58,30.13,29.99,10,1,0,0.00
2012-12-24,35,28,18,28,23,14,87,81,68,30.09,29.85,9,0,0,0.02
2012-12-25,34,32,31,29,26,22,89,78,67,30.30,29.99,9,1,0,0.00
2012-12-26,32,28,26,25,23,20,88,79,67,30.27,29.71,20,3,0,0.38
2012-12-27,32,29,26,28,25,22,88,87,83,30.22,29.76,12,3,12,0.00
2012-12-28,32,27,24,24,21,18,84,78,66,30.25,29.97,9,1,9,0.00
2012-12-29,33,28,26,28,24,20,87,83,74,30.08,29.79,15,1,15,0.19
2012-12-30,28,23,18,24,19,13,86,82,77,30.43,30.08,16,4,16,0.00
2012-12-31,33,27,18,28,22,14,87,81,67,30.38,30.10,14,3,16,0.09
2013-1-1,31,27,20,28,21,12,86,80,71,30.19,30.06,9,2,11,0.00